sensor_id;sensor_type;location;lat;lon;timestamp;temperature;humidity
9943;DHT22;5010;45.080;7.634;2024-02-23T00:01:57;7.90;1.00
9943;DHT22;5010;45.080;7.634;2024-02-23T00:04:25;7.90;1.00
9943;DHT22;5010;45.080;7.634;2024-02-23T00:06:52;7.90;1.00
9943;DHT22;5010;45.080;7.634;2024-02-23T00:09:19;7.90;1.00
9943;DHT22;5010;45.080;7.634;2024-02-23T00:11:47;7.90;1.00
9943;DHT22;5010;45.080;7.634;2024-02-23T00:14:16;7.90;1.00
9943;DHT22;5010;45.080;7.634;2024-02-23T00:16:44;8.00;1.00
9943;DHT22;5010;45.080;7.634;2024-02-23T00:19:13;7.90;1.00
9943;DHT22;5010;45.080;7.634;2024-02-23T00:21:44;7.80;1.00
9943;DHT22;5010;45.080;7.634;2024-02-23T00:24:15;7.80;1.00
9943;DHT22;5010;45.080;7.634;2024-02-23T00:26:43;7.80;1.00
9943;DHT22;5010;45.080;7.634;2024-02-23T00:29:12;7.80;1.00
9943;DHT22;5010;45.080;7.634;2024-02-23T00:31:39;7.80;1.00
9943;DHT22;5010;45.080;7.634;2024-02-23T00:34:07;7.90;1.00
9943;DHT22;5010;45.080;7.634;2024-02-23T00:36:38;7.90;1.00
9943;DHT22;5010;45.080;7.634;2024-02-23T00:39:06;7.90;1.00
9943;DHT22;5010;45.080;7.634;2024-02-23T00:41:34;7.90;1.00
9943;DHT22;5010;45.080;7.634;2024-02-23T00:44:01;7.90;1.00
9943;DHT22;5010;45.080;7.634;2024-02-23T00:46:29;8.00;1.00
9943;DHT22;5010;45.080;7.634;2024-02-23T00:48:56;8.00;1.00
9943;DHT22;5010;45.080;7.634;2024-02-23T00:51:24;8.10;1.00
9943;DHT22;5010;45.080;7.634;2024-02-23T00:53:52;8.00;1.00
9943;DHT22;5010;45.080;7.634;2024-02-23T00:56:20;7.90;1.00
9943;DHT22;5010;45.080;7.634;2024-02-23T00:58:47;7.60;1.00
9943;DHT22;5010;45.080;7.634;2024-02-23T01:01:15;7.40;1.00
9943;DHT22;5010;45.080;7.634;2024-02-23T01:03:42;7.50;1.00
9943;DHT22;5010;45.080;7.634;2024-02-23T01:06:10;7.60;1.00
9943;DHT22;5010;45.080;7.634;2024-02-23T01:08:37;7.60;1.00
9943;DHT22;5010;45.080;7.634;2024-02-23T01:11:07;7.50;1.00
9943;DHT22;5010;45.080;7.634;2024-02-23T01:13:35;7.50;1.00
9943;DHT22;5010;45.080;7.634;2024-02-23T01:16:02;7.50;1.00
9943;DHT22;5010;45.080;7.634;2024-02-23T01:18:30;7.60;1.00
9943;DHT22;5010;45.080;7.634;2024-02-23T01:20:57;7.60;1.00
9943;DHT22;5010;45.080;7.634;2024-02-23T01:23:25;7.70;1.00
9943;DHT22;5010;45.080;7.634;2024-02-23T01:25:52;7.70;1.00
9943;DHT22;5010;45.080;7.634;2024-02-23T01:28:22;7.70;1.00
9943;DHT22;5010;45.080;7.634;2024-02-23T01:30:49;7.70;1.00
9943;DHT22;5010;45.080;7.634;2024-02-23T01:33:16;7.60;1.00
9943;DHT22;5010;45.080;7.634;2024-02-23T01:35:44;7.50;1.00
9943;DHT22;5010;45.080;7.634;2024-02-23T01:38:11;7.30;1.00
9943;DHT22;5010;45.080;7.634;2024-02-23T01:40:44;7.30;1.00
9943;DHT22;5010;45.080;7.634;2024-02-23T01:43:12;7.30;1.00
9943;DHT22;5010;45.080;7.634;2024-02-23T01:45:41;7.30;1.00
9943;DHT22;5010;45.080;7.634;2024-02-23T01:48:09;7.40;1.00
9943;DHT22;5010;45.080;7.634;2024-02-23T01:50:36;7.40;1.00
9943;DHT22;5010;45.080;7.634;2024-02-23T01:53:04;7.40;1.00
9943;DHT22;5010;45.080;7.634;2024-02-23T01:55:32;7.50;1.00
9943;DHT22;5010;45.080;7.634;2024-02-23T01:58:01;7.50;1.00
9943;DHT22;5010;45.080;7.634;2024-02-23T02:00:29;7.60;1.00
9943;DHT22;5010;45.080;7.634;2024-02-23T02:02:58;7.50;1.00
9943;DHT22;5010;45.080;7.634;2024-02-23T02:05:26;7.40;1.00
9943;DHT22;5010;45.080;7.634;2024-02-23T02:07:55;7.20;1.00
9943;DHT22;5010;45.080;7.634;2024-02-23T02:10:25;7.10;1.00
9943;DHT22;5010;45.080;7.634;2024-02-23T02:12:53;7.10;1.00
9943;DHT22;5010;45.080;7.634;2024-02-23T02:15:20;7.20;1.00
9943;DHT22;5010;45.080;7.634;2024-02-23T02:17:48;7.20;1.00
9943;DHT22;5010;45.080;7.634;2024-02-23T02:20:18;7.30;1.00
9943;DHT22;5010;45.080;7.634;2024-02-23T02:22:50;7.30;1.00
9943;DHT22;5010;45.080;7.634;2024-02-23T02:25:18;7.10;1.00
9943;DHT22;5010;45.080;7.634;2024-02-23T02:27:46;7.10;1.00
9943;DHT22;5010;45.080;7.634;2024-02-23T02:30:13;7.10;1.00
9943;DHT22;5010;45.080;7.634;2024-02-23T02:32:41;7.10;1.00
9943;DHT22;5010;45.080;7.634;2024-02-23T02:35:11;7.20;1.00
9943;DHT22;5010;45.080;7.634;2024-02-23T02:37:40;7.00;1.00
9943;DHT22;5010;45.080;7.634;2024-02-23T02:40:08;7.00;1.00
9943;DHT22;5010;45.080;7.634;2024-02-23T02:42:36;6.90;1.00
9943;DHT22;5010;45.080;7.634;2024-02-23T02:45:04;6.90;1.00
9943;DHT22;5010;45.080;7.634;2024-02-23T02:47:31;6.80;1.00
9943;DHT22;5010;45.080;7.634;2024-02-23T02:49:59;6.80;1.00
9943;DHT22;5010;45.080;7.634;2024-02-23T02:52:26;6.90;1.00
9943;DHT22;5010;45.080;7.634;2024-02-23T02:54:56;7.00;1.00
9943;DHT22;5010;45.080;7.634;2024-02-23T02:57:23;7.10;1.00
9943;DHT22;5010;45.080;7.634;2024-02-23T02:59:50;7.10;1.00
9943;DHT22;5010;45.080;7.634;2024-02-23T03:02:18;7.10;1.00
9943;DHT22;5010;45.080;7.634;2024-02-23T03:04:48;7.20;1.00
9943;DHT22;5010;45.080;7.634;2024-02-23T03:07:16;7.30;1.00
9943;DHT22;5010;45.080;7.634;2024-02-23T03:09:44;7.30;1.00
9943;DHT22;5010;45.080;7.634;2024-02-23T03:12:13;7.40;1.00
9943;DHT22;5010;45.080;7.634;2024-02-23T03:14:41;7.30;1.00
9943;DHT22;5010;45.080;7.634;2024-02-23T03:17:08;7.40;1.00
9943;DHT22;5010;45.080;7.634;2024-02-23T03:19:36;7.40;1.00
9943;DHT22;5010;45.080;7.634;2024-02-23T03:22:04;7.30;1.00
9943;DHT22;5010;45.080;7.634;2024-02-23T03:24:31;7.30;1.00
9943;DHT22;5010;45.080;7.634;2024-02-23T03:26:59;7.20;1.00
9943;DHT22;5010;45.080;7.634;2024-02-23T03:29:28;7.20;1.00
9943;DHT22;5010;45.080;7.634;2024-02-23T03:31:56;7.20;1.00
9943;DHT22;5010;45.080;7.634;2024-02-23T03:34:24;7.20;1.00
9943;DHT22;5010;45.080;7.634;2024-02-23T03:36:51;7.00;1.00
9943;DHT22;5010;45.080;7.634;2024-02-23T03:39:19;7.00;1.00
9943;DHT22;5010;45.080;7.634;2024-02-23T03:41:46;7.10;1.00
9943;DHT22;5010;45.080;7.634;2024-02-23T03:44:13;7.10;1.00
9943;DHT22;5010;45.080;7.634;2024-02-23T03:46:42;7.10;1.00
9943;DHT22;5010;45.080;7.634;2024-02-23T03:49:10;7.00;1.00
9943;DHT22;5010;45.080;7.634;2024-02-23T03:51:37;7.10;1.00
9943;DHT22;5010;45.080;7.634;2024-02-23T03:54:05;7.20;1.00
9943;DHT22;5010;45.080;7.634;2024-02-23T03:56:38;7.20;1.00
9943;DHT22;5010;45.080;7.634;2024-02-23T03:59:06;7.30;1.00
9943;DHT22;5010;45.080;7.634;2024-02-23T04:01:35;7.30;1.00
9943;DHT22;5010;45.080;7.634;2024-02-23T04:04:05;7.40;1.00
9943;DHT22;5010;45.080;7.634;2024-02-23T04:06:34;7.40;1.00
9943;DHT22;5010;45.080;7.634;2024-02-23T04:09:02;7.40;1.00
9943;DHT22;5010;45.080;7.634;2024-02-23T04:11:30;7.30;1.00
9943;DHT22;5010;45.080;7.634;2024-02-23T04:13:58;7.30;1.00
9943;DHT22;5010;45.080;7.634;2024-02-23T04:16:26;7.30;1.00
9943;DHT22;5010;45.080;7.634;2024-02-23T04:18:54;7.30;1.00
9943;DHT22;5010;45.080;7.634;2024-02-23T04:21:23;7.20;1.00
9943;DHT22;5010;45.080;7.634;2024-02-23T04:23:51;7.10;1.00
9943;DHT22;5010;45.080;7.634;2024-02-23T04:26:18;7.10;1.00
9943;DHT22;5010;45.080;7.634;2024-02-23T04:28:45;7.00;1.00
9943;DHT22;5010;45.080;7.634;2024-02-23T04:31:13;7.10;1.00
9943;DHT22;5010;45.080;7.634;2024-02-23T04:33:40;7.10;1.00
9943;DHT22;5010;45.080;7.634;2024-02-23T04:36:08;7.20;1.00
9943;DHT22;5010;45.080;7.634;2024-02-23T04:38:37;7.20;1.00
9943;DHT22;5010;45.080;7.634;2024-02-23T04:41:05;7.20;1.00
9943;DHT22;5010;45.080;7.634;2024-02-23T04:43:33;7.20;1.00
9943;DHT22;5010;45.080;7.634;2024-02-23T04:46:01;7.20;1.00
9943;DHT22;5010;45.080;7.634;2024-02-23T04:48:28;7.30;1.00
9943;DHT22;5010;45.080;7.634;2024-02-23T04:50:56;7.30;1.00
9943;DHT22;5010;45.080;7.634;2024-02-23T04:53:24;7.40;1.00
9943;DHT22;5010;45.080;7.634;2024-02-23T04:55:53;7.40;1.00
9943;DHT22;5010;45.080;7.634;2024-02-23T04:58:20;7.40;1.00
9943;DHT22;5010;45.080;7.634;2024-02-23T07:01:15;7.10;1.00
9943;DHT22;5010;45.080;7.634;2024-02-23T07:03:44;7.20;1.00
9943;DHT22;5010;45.080;7.634;2024-02-23T07:06:17;7.20;1.00
9943;DHT22;5010;45.080;7.634;2024-02-23T09:09:02;7.70;1.00
9943;DHT22;5010;45.080;7.634;2024-02-23T09:11:30;7.60;1.00
9943;DHT22;5010;45.080;7.634;2024-02-23T09:13:58;7.60;1.00
9943;DHT22;5010;45.080;7.634;2024-02-23T09:16:58;7.60;1.00
9943;DHT22;5010;45.080;7.634;2024-02-23T09:19:26;7.70;1.00
9943;DHT22;5010;45.080;7.634;2024-02-23T09:21:53;7.80;1.00
9943;DHT22;5010;45.080;7.634;2024-02-23T09:24:22;7.90;1.00
9943;DHT22;5010;45.080;7.634;2024-02-23T09:26:58;8.00;1.00
9943;DHT22;5010;45.080;7.634;2024-02-23T09:29:44;8.40;1.00
9943;DHT22;5010;45.080;7.634;2024-02-23T09:32:11;9.00;1.00
9943;DHT22;5010;45.080;7.634;2024-02-23T09:34:39;9.30;1.00
9943;DHT22;5010;45.080;7.634;2024-02-23T09:37:06;9.40;1.00
9943;DHT22;5010;45.080;7.634;2024-02-23T09:39:36;9.50;1.00
9943;DHT22;5010;45.080;7.634;2024-02-23T09:42:07;9.40;1.00
9943;DHT22;5010;45.080;7.634;2024-02-23T10:37:45;10.70;1.00
9943;DHT22;5010;45.080;7.634;2024-02-23T10:40:17;10.40;1.00
9943;DHT22;5010;45.080;7.634;2024-02-23T10:42:52;10.40;1.00
9943;DHT22;5010;45.080;7.634;2024-02-23T10:45:32;10.70;1.00
9943;DHT22;5010;45.080;7.634;2024-02-23T10:48:02;10.90;1.00
9943;DHT22;5010;45.080;7.634;2024-02-23T10:50:34;11.00;1.00
9943;DHT22;5010;45.080;7.634;2024-02-23T10:53:07;11.00;1.00
9943;DHT22;5010;45.080;7.634;2024-02-23T10:55:37;10.60;1.00
9943;DHT22;5010;45.080;7.634;2024-02-23T10:58:07;10.40;1.00
9943;DHT22;5010;45.080;7.634;2024-02-23T11:00:37;10.40;1.00
9943;DHT22;5010;45.080;7.634;2024-02-23T11:03:06;11.00;1.00
9943;DHT22;5010;45.080;7.634;2024-02-23T11:09:06;12.40;1.00
9943;DHT22;5010;45.080;7.634;2024-02-23T11:11:37;12.70;99.90
9943;DHT22;5010;45.080;7.634;2024-02-23T11:14:08;12.80;99.90
9943;DHT22;5010;45.080;7.634;2024-02-23T11:16:39;13.00;99.90
9943;DHT22;5010;45.080;7.634;2024-02-23T11:19:09;13.10;99.90
9943;DHT22;5010;45.080;7.634;2024-02-23T11:21:37;13.20;99.90
9943;DHT22;5010;45.080;7.634;2024-02-23T11:24:07;13.30;1.00
9943;DHT22;5010;45.080;7.634;2024-02-23T11:26:37;13.40;1.00
9943;DHT22;5010;45.080;7.634;2024-02-23T11:29:10;13.50;1.00
9943;DHT22;5010;45.080;7.634;2024-02-23T11:31:44;13.30;1.00
9943;DHT22;5010;45.080;7.634;2024-02-23T11:34:13;13.30;1.00
9943;DHT22;5010;45.080;7.634;2024-02-23T11:36:41;13.30;1.00
9943;DHT22;5010;45.080;7.634;2024-02-23T11:39:10;13.50;1.00
9943;DHT22;5010;45.080;7.634;2024-02-23T11:41:39;13.80;1.00
9943;DHT22;5010;45.080;7.634;2024-02-23T11:44:07;13.80;99.90
9943;DHT22;5010;45.080;7.634;2024-02-23T11:46:35;13.60;1.00
9943;DHT22;5010;45.080;7.634;2024-02-23T11:49:02;13.40;19.60
9943;DHT22;5010;45.080;7.634;2024-02-23T11:51:30;13.50;1.00
9943;DHT22;5010;45.080;7.634;2024-02-23T11:53:58;13.60;1.00
9943;DHT22;5010;45.080;7.634;2024-02-23T11:56:29;13.70;1.00
9943;DHT22;5010;45.080;7.634;2024-02-23T11:58:57;14.00;1.00
9943;DHT22;5010;45.080;7.634;2024-02-23T12:01:25;14.20;1.00
9943;DHT22;5010;45.080;7.634;2024-02-23T12:03:53;14.00;99.90
9943;DHT22;5010;45.080;7.634;2024-02-23T12:06:21;13.60;99.90
9943;DHT22;5010;45.080;7.634;2024-02-23T12:08:48;13.30;99.90
9943;DHT22;5010;45.080;7.634;2024-02-23T12:11:16;13.00;99.90
9943;DHT22;5010;45.080;7.634;2024-02-23T12:13:46;12.80;1.00
9943;DHT22;5010;45.080;7.634;2024-02-23T12:16:14;12.70;1.00
9943;DHT22;5010;45.080;7.634;2024-02-23T12:18:42;12.80;99.90
9943;DHT22;5010;45.080;7.634;2024-02-23T12:21:10;12.90;1.00
9943;DHT22;5010;45.080;7.634;2024-02-23T12:23:41;13.20;1.00
9943;DHT22;5010;45.080;7.634;2024-02-23T12:26:10;13.70;99.90
9943;DHT22;5010;45.080;7.634;2024-02-23T12:28:39;14.10;1.00
9943;DHT22;5010;45.080;7.634;2024-02-23T12:31:08;14.10;1.00
9943;DHT22;5010;45.080;7.634;2024-02-23T12:33:37;14.00;99.90
9943;DHT22;5010;45.080;7.634;2024-02-23T12:36:06;14.40;1.00
9943;DHT22;5010;45.080;7.634;2024-02-23T12:38:35;14.30;99.90
9943;DHT22;5010;45.080;7.634;2024-02-23T12:41:03;14.30;99.90
9943;DHT22;5010;45.080;7.634;2024-02-23T12:43:31;14.00;99.90
9943;DHT22;5010;45.080;7.634;2024-02-23T12:45:59;13.80;1.00
9943;DHT22;5010;45.080;7.634;2024-02-23T12:48:31;13.80;1.00
9943;DHT22;5010;45.080;7.634;2024-02-23T12:50:58;14.00;99.90
9943;DHT22;5010;45.080;7.634;2024-02-23T12:53:33;14.00;98.20
9943;DHT22;5010;45.080;7.634;2024-02-23T12:56:03;14.00;1.00
9943;DHT22;5010;45.080;7.634;2024-02-23T12:58:32;14.10;99.90
9943;DHT22;5010;45.080;7.634;2024-02-23T13:00:59;14.20;1.00
9943;DHT22;5010;45.080;7.634;2024-02-23T13:03:28;14.10;90.60
9943;DHT22;5010;45.080;7.634;2024-02-23T13:05:58;14.20;1.00
9943;DHT22;5010;45.080;7.634;2024-02-23T13:08:26;14.50;1.00
9943;DHT22;5010;45.080;7.634;2024-02-23T13:10:54;14.30;99.90
9943;DHT22;5010;45.080;7.634;2024-02-23T13:13:22;14.20;1.00
9943;DHT22;5010;45.080;7.634;2024-02-23T13:15:51;14.40;1.00
9943;DHT22;5010;45.080;7.634;2024-02-23T13:18:19;14.20;67.60
9943;DHT22;5010;45.080;7.634;2024-02-23T13:20:47;14.10;1.00
9943;DHT22;5010;45.080;7.634;2024-02-23T13:23:17;13.90;1.00
9943;DHT22;5010;45.080;7.634;2024-02-23T13:25:45;13.80;1.00
9943;DHT22;5010;45.080;7.634;2024-02-23T13:28:13;13.70;1.00
9943;DHT22;5010;45.080;7.634;2024-02-23T13:30:40;13.90;99.90
9943;DHT22;5010;45.080;7.634;2024-02-23T13:33:10;14.30;99.90
9943;DHT22;5010;45.080;7.634;2024-02-23T13:35:38;14.60;99.90
9943;DHT22;5010;45.080;7.634;2024-02-23T13:38:06;14.90;1.00
9943;DHT22;5010;45.080;7.634;2024-02-23T13:40:36;14.90;1.00
9943;DHT22;5010;45.080;7.634;2024-02-23T13:43:04;14.70;1.00
9943;DHT22;5010;45.080;7.634;2024-02-23T13:45:33;14.50;1.00
9943;DHT22;5010;45.080;7.634;2024-02-23T13:48:14;14.30;96.10
9943;DHT22;5010;45.080;7.634;2024-02-23T13:50:42;14.00;1.00
9943;DHT22;5010;45.080;7.634;2024-02-23T13:53:11;13.90;99.90
9943;DHT22;5010;45.080;7.634;2024-02-23T13:55:40;13.60;99.90
9943;DHT22;5010;45.080;7.634;2024-02-23T13:58:08;13.40;1.00
9943;DHT22;5010;45.080;7.634;2024-02-23T14:00:36;13.20;1.00
9943;DHT22;5010;45.080;7.634;2024-02-23T14:03:04;13.10;99.90
9943;DHT22;5010;45.080;7.634;2024-02-23T14:05:32;13.30;99.90
9943;DHT22;5010;45.080;7.634;2024-02-23T14:08:00;13.70;99.90
9943;DHT22;5010;45.080;7.634;2024-02-23T14:10:29;14.00;1.00
9943;DHT22;5010;45.080;7.634;2024-02-23T16:16:00;11.00;1.00
9943;DHT22;5010;45.080;7.634;2024-02-23T16:18:28;10.90;1.00
9943;DHT22;5010;45.080;7.634;2024-02-23T16:21:22;11.00;1.00
9943;DHT22;5010;45.080;7.634;2024-02-23T16:23:49;10.90;1.00
9943;DHT22;5010;45.080;7.634;2024-02-23T16:26:17;10.90;1.00
9943;DHT22;5010;45.080;7.634;2024-02-23T16:28:44;11.00;1.00
9943;DHT22;5010;45.080;7.634;2024-02-23T16:31:13;11.00;1.00
9943;DHT22;5010;45.080;7.634;2024-02-23T16:33:41;10.90;1.00
9943;DHT22;5010;45.080;7.634;2024-02-23T16:36:09;10.90;1.00
9943;DHT22;5010;45.080;7.634;2024-02-23T16:41:58;10.70;1.00
9943;DHT22;5010;45.080;7.634;2024-02-23T16:45:04;10.50;1.00
9943;DHT22;5010;45.080;7.634;2024-02-23T16:48:02;10.50;1.00
9943;DHT22;5010;45.080;7.634;2024-02-23T16:50:35;10.50;1.00
9943;DHT22;5010;45.080;7.634;2024-02-23T16:53:40;10.50;1.00
9943;DHT22;5010;45.080;7.634;2024-02-23T17:10:42;10.10;1.00
9943;DHT22;5010;45.080;7.634;2024-02-23T17:13:09;9.70;1.00
9943;DHT22;5010;45.080;7.634;2024-02-23T17:15:57;9.40;1.00
9943;DHT22;5010;45.080;7.634;2024-02-23T17:18:44;9.10;1.00
9943;DHT22;5010;45.080;7.634;2024-02-23T17:21:12;9.00;1.00
9943;DHT22;5010;45.080;7.634;2024-02-23T17:24:04;9.00;1.00
9943;DHT22;5010;45.080;7.634;2024-02-23T17:33:33;8.80;1.00
9943;DHT22;5010;45.080;7.634;2024-02-23T17:36:53;8.70;1.00
9943;DHT22;5010;45.080;7.634;2024-02-23T17:39:35;8.70;1.00
9943;DHT22;5010;45.080;7.634;2024-02-23T17:42:42;8.50;1.00
9943;DHT22;5010;45.080;7.634;2024-02-23T17:46:06;8.50;1.00
9943;DHT22;5010;45.080;7.634;2024-02-23T17:48:35;8.20;1.00
9943;DHT22;5010;45.080;7.634;2024-02-23T17:57:45;7.70;1.00
9943;DHT22;5010;45.080;7.634;2024-02-23T18:04:32;7.50;1.00
9943;DHT22;5010;45.080;7.634;2024-02-23T18:06:59;7.70;1.00
9943;DHT22;5010;45.080;7.634;2024-02-23T18:09:27;7.90;1.00
9943;DHT22;5010;45.080;7.634;2024-02-23T18:16:03;8.10;1.00
9943;DHT22;5010;45.080;7.634;2024-02-23T18:18:50;8.10;1.00
9943;DHT22;5010;45.080;7.634;2024-02-23T18:25:13;7.90;1.00
9943;DHT22;5010;45.080;7.634;2024-02-23T18:28:07;7.80;1.00
9943;DHT22;5010;45.080;7.634;2024-02-23T18:30:35;7.60;1.00
9943;DHT22;5010;45.080;7.634;2024-02-23T18:33:03;7.40;1.00
9943;DHT22;5010;45.080;7.634;2024-02-23T18:35:31;7.30;1.00
9943;DHT22;5010;45.080;7.634;2024-02-23T18:48:15;7.50;1.00
9943;DHT22;5010;45.080;7.634;2024-02-23T18:54:49;7.60;1.00
9943;DHT22;5010;45.080;7.634;2024-02-23T18:57:45;7.60;1.00
9943;DHT22;5010;45.080;7.634;2024-02-23T19:00:31;7.60;1.00
9943;DHT22;5010;45.080;7.634;2024-02-23T19:06:54;7.50;1.00
9943;DHT22;5010;45.080;7.634;2024-02-23T19:09:43;7.60;1.00
9943;DHT22;5010;45.080;7.634;2024-02-23T19:29:31;7.60;1.00
9943;DHT22;5010;45.080;7.634;2024-02-23T19:42:09;7.00;1.00
9943;DHT22;5010;45.080;7.634;2024-02-23T19:48:00;7.10;1.00
9943;DHT22;5010;45.080;7.634;2024-02-23T20:00:36;7.10;1.00
9943;DHT22;5010;45.080;7.634;2024-02-23T20:06:32;7.20;1.00
9943;DHT22;5010;45.080;7.634;2024-02-23T20:13:04;7.20;1.00
9943;DHT22;5010;45.080;7.634;2024-02-23T20:15:31;7.00;1.00
9943;DHT22;5010;45.080;7.634;2024-02-23T20:21:54;6.70;1.00
9943;DHT22;5010;45.080;7.634;2024-02-23T20:24:24;6.80;1.00
9943;DHT22;5010;45.080;7.634;2024-02-23T20:26:54;6.90;1.00
9943;DHT22;5010;45.080;7.634;2024-02-23T20:29:23;6.90;1.00
9943;DHT22;5010;45.080;7.634;2024-02-23T20:31:53;7.00;1.00
9943;DHT22;5010;45.080;7.634;2024-02-23T20:34:21;6.90;1.00
9943;DHT22;5010;45.080;7.634;2024-02-23T20:36:49;6.70;1.00
9943;DHT22;5010;45.080;7.634;2024-02-23T20:39:18;6.70;1.00
9943;DHT22;5010;45.080;7.634;2024-02-23T20:41:46;6.60;1.00
9943;DHT22;5010;45.080;7.634;2024-02-23T20:44:13;6.50;1.00
9943;DHT22;5010;45.080;7.634;2024-02-23T20:46:41;6.30;1.00
9943;DHT22;5010;45.080;7.634;2024-02-23T20:49:09;6.30;1.00
9943;DHT22;5010;45.080;7.634;2024-02-23T20:51:37;6.30;1.00
9943;DHT22;5010;45.080;7.634;2024-02-23T20:54:04;6.50;1.00
9943;DHT22;5010;45.080;7.634;2024-02-23T20:56:34;6.50;1.00
9943;DHT22;5010;45.080;7.634;2024-02-23T20:59:01;6.40;1.00
9943;DHT22;5010;45.080;7.634;2024-02-23T21:01:29;6.30;1.00
9943;DHT22;5010;45.080;7.634;2024-02-23T21:03:57;6.20;1.00
9943;DHT22;5010;45.080;7.634;2024-02-23T21:06:27;6.20;1.00
9943;DHT22;5010;45.080;7.634;2024-02-23T21:08:55;6.20;1.00
9943;DHT22;5010;45.080;7.634;2024-02-23T21:11:23;6.20;1.00
9943;DHT22;5010;45.080;7.634;2024-02-23T21:13:53;6.10;1.00
9943;DHT22;5010;45.080;7.634;2024-02-23T21:16:21;6.00;1.00
9943;DHT22;5010;45.080;7.634;2024-02-23T21:18:49;6.10;1.00
9943;DHT22;5010;45.080;7.634;2024-02-23T21:21:17;6.10;1.00
9943;DHT22;5010;45.080;7.634;2024-02-23T21:23:47;6.00;1.00
9943;DHT22;5010;45.080;7.634;2024-02-23T21:26:15;5.90;1.00
9943;DHT22;5010;45.080;7.634;2024-02-23T21:28:42;6.00;1.00
9943;DHT22;5010;45.080;7.634;2024-02-23T21:31:13;6.10;1.00
9943;DHT22;5010;45.080;7.634;2024-02-23T21:33:40;6.00;1.00
9943;DHT22;5010;45.080;7.634;2024-02-23T21:36:09;6.10;1.00
9943;DHT22;5010;45.080;7.634;2024-02-23T21:38:37;6.20;1.00
9943;DHT22;5010;45.080;7.634;2024-02-23T21:41:05;6.10;1.00
9943;DHT22;5010;45.080;7.634;2024-02-23T21:43:32;6.00;1.00
9943;DHT22;5010;45.080;7.634;2024-02-23T21:46:00;6.00;1.00
9943;DHT22;5010;45.080;7.634;2024-02-23T21:48:29;6.10;1.00
9943;DHT22;5010;45.080;7.634;2024-02-23T21:50:57;6.10;1.00
9943;DHT22;5010;45.080;7.634;2024-02-23T21:53:25;6.20;1.00
9943;DHT22;5010;45.080;7.634;2024-02-23T21:55:53;6.20;1.00
9943;DHT22;5010;45.080;7.634;2024-02-23T21:58:20;6.10;1.00
9943;DHT22;5010;45.080;7.634;2024-02-23T22:00:48;6.20;1.00
9943;DHT22;5010;45.080;7.634;2024-02-23T22:03:17;6.10;1.00
9943;DHT22;5010;45.080;7.634;2024-02-23T22:05:48;6.10;1.00
9943;DHT22;5010;45.080;7.634;2024-02-23T22:08:15;6.10;1.00
9943;DHT22;5010;45.080;7.634;2024-02-23T22:10:44;6.00;1.00
9943;DHT22;5010;45.080;7.634;2024-02-23T22:13:11;6.00;1.00
9943;DHT22;5010;45.080;7.634;2024-02-23T22:15:39;6.10;1.00
9943;DHT22;5010;45.080;7.634;2024-02-23T22:18:07;6.00;1.00
9943;DHT22;5010;45.080;7.634;2024-02-23T22:20:35;5.80;1.00
9943;DHT22;5010;45.080;7.634;2024-02-23T22:23:04;5.80;1.00
9943;DHT22;5010;45.080;7.634;2024-02-23T22:25:34;5.70;1.00
9943;DHT22;5010;45.080;7.634;2024-02-23T22:28:04;5.60;1.00
9943;DHT22;5010;45.080;7.634;2024-02-23T22:30:31;5.70;1.00
9943;DHT22;5010;45.080;7.634;2024-02-23T22:32:59;5.60;1.00
9943;DHT22;5010;45.080;7.634;2024-02-23T22:35:27;5.50;1.00
9943;DHT22;5010;45.080;7.634;2024-02-23T22:37:55;5.40;1.00
9943;DHT22;5010;45.080;7.634;2024-02-23T22:40:25;5.40;1.00
9943;DHT22;5010;45.080;7.634;2024-02-23T22:42:53;5.40;1.00
9943;DHT22;5010;45.080;7.634;2024-02-23T22:45:20;5.40;1.00
9943;DHT22;5010;45.080;7.634;2024-02-23T22:47:48;5.30;1.00
9943;DHT22;5010;45.080;7.634;2024-02-23T22:50:16;5.30;1.00
9943;DHT22;5010;45.080;7.634;2024-02-23T22:52:44;5.30;1.00
9943;DHT22;5010;45.080;7.634;2024-02-23T22:55:12;5.40;1.00
9943;DHT22;5010;45.080;7.634;2024-02-23T22:57:41;5.30;1.00
9943;DHT22;5010;45.080;7.634;2024-02-23T23:00:10;5.30;1.00
9943;DHT22;5010;45.080;7.634;2024-02-23T23:02:39;5.20;1.00
9943;DHT22;5010;45.080;7.634;2024-02-23T23:05:08;5.20;1.00
9943;DHT22;5010;45.080;7.634;2024-02-23T23:07:36;5.30;1.00
9943;DHT22;5010;45.080;7.634;2024-02-23T23:10:05;5.30;1.00
9943;DHT22;5010;45.080;7.634;2024-02-23T23:12:33;5.30;1.00
9943;DHT22;5010;45.080;7.634;2024-02-23T23:15:02;5.20;1.00
9943;DHT22;5010;45.080;7.634;2024-02-23T23:17:30;5.30;1.00
9943;DHT22;5010;45.080;7.634;2024-02-23T23:19:58;5.30;1.00
9943;DHT22;5010;45.080;7.634;2024-02-23T23:22:31;5.30;1.00
9943;DHT22;5010;45.080;7.634;2024-02-23T23:24:59;5.20;1.00
9943;DHT22;5010;45.080;7.634;2024-02-23T23:27:26;5.20;1.00
9943;DHT22;5010;45.080;7.634;2024-02-23T23:29:54;5.20;1.00
9943;DHT22;5010;45.080;7.634;2024-02-23T23:32:23;5.10;1.00
9943;DHT22;5010;45.080;7.634;2024-02-23T23:34:51;5.10;1.00
9943;DHT22;5010;45.080;7.634;2024-02-23T23:37:18;5.10;1.00
9943;DHT22;5010;45.080;7.634;2024-02-23T23:39:46;5.10;1.00
9943;DHT22;5010;45.080;7.634;2024-02-23T23:42:14;5.00;1.00
9943;DHT22;5010;45.080;7.634;2024-02-23T23:44:42;5.10;1.00
9943;DHT22;5010;45.080;7.634;2024-02-23T23:47:10;5.10;1.00
9943;DHT22;5010;45.080;7.634;2024-02-23T23:49:39;5.10;1.00
9943;DHT22;5010;45.080;7.634;2024-02-23T23:52:07;5.20;1.00
9943;DHT22;5010;45.080;7.634;2024-02-23T23:54:34;5.10;1.00
9943;DHT22;5010;45.080;7.634;2024-02-23T23:57:02;5.00;1.00
9943;DHT22;5010;45.080;7.634;2024-02-23T23:59:30;5.00;1.00
